createdAt,value
2023-04-25T00:01:48.199Z,87.86
2023-04-25T00:04:02.540Z,87.69
2023-04-25T00:06:15.307Z,87.56
2023-04-25T00:08:27.856Z,87.43
2023-04-25T00:10:40.464Z,87.38
2023-04-25T00:12:53.077Z,86.92
2023-04-25T00:15:06.258Z,87.24
2023-04-25T00:17:20.179Z,87.03
2023-04-25T00:19:33.590Z,87.30
2023-04-25T00:21:47.236Z,87.21
2023-04-25T00:24:00.783Z,87.20
2023-04-25T00:26:13.802Z,87.17
2023-04-25T00:28:26.494Z,86.73
2023-04-25T00:30:39.956Z,86.83
2023-04-25T00:32:52.598Z,86.81
2023-04-25T00:35:05.471Z,86.67
2023-04-25T00:37:19.258Z,85.98
2023-04-25T00:39:31.834Z,86.24
2023-04-25T00:41:45.854Z,86.15
2023-04-25T00:44:00.325Z,86.08
2023-04-25T00:46:13.216Z,85.70
2023-04-25T00:48:25.808Z,85.99
2023-04-25T00:50:38.844Z,85.62
2023-04-25T00:52:51.863Z,85.28
2023-04-25T00:55:04.795Z,85.34
2023-04-25T00:57:17.401Z,85.37
2023-04-25T00:59:31.668Z,85.38
2023-04-25T01:01:45.265Z,85.43
2023-04-25T01:03:59.880Z,85.37
2023-04-25T01:06:12.713Z,84.96
2023-04-25T01:08:28.612Z,85.02
2023-04-25T01:10:41.334Z,84.94
2023-04-25T01:12:54.203Z,84.83
2023-04-25T01:15:07.476Z,84.54
2023-04-25T01:17:20.720Z,84.22
2023-04-25T01:19:33.410Z,84.51
2023-04-25T01:21:46.554Z,84.41
2023-04-25T01:23:59.408Z,84.33
2023-04-25T01:26:12.781Z,84.22
2023-04-25T01:28:25.576Z,83.97
2023-04-25T01:30:38.327Z,84.04
2023-04-25T01:32:52.256Z,84.01
2023-04-25T01:35:10.429Z,83.77
2023-04-25T01:37:23.282Z,83.37
2023-04-25T01:39:35.981Z,83.39
2023-04-25T01:41:48.958Z,83.29
2023-04-25T01:44:02.381Z,83.09
2023-04-25T01:46:15.205Z,83.15
2023-04-25T01:48:27.911Z,83.42
2023-04-25T01:50:41.609Z,83.31
2023-04-25T01:52:54.885Z,83.60
2023-04-25T01:55:07.968Z,83.20
2023-04-25T01:57:20.881Z,83.61
2023-04-25T01:59:33.467Z,83.64
2023-04-25T02:01:46.069Z,83.71
2023-04-25T02:03:58.937Z,83.77
2023-04-25T02:06:11.614Z,83.74
2023-04-25T02:08:24.279Z,83.72
2023-04-25T02:10:37.376Z,83.85
2023-04-25T02:12:49.949Z,83.86
2023-04-25T02:15:02.660Z,83.96
2023-04-25T02:17:15.283Z,84.08
2023-04-25T02:19:27.880Z,83.99
2023-04-25T02:21:40.433Z,84.28
2023-04-25T02:23:53.558Z,84.53
2023-04-25T02:26:06.482Z,84.44
2023-04-25T02:28:19.061Z,84.37
2023-04-25T02:30:31.573Z,84.64
2023-04-25T02:32:44.232Z,84.82
2023-04-25T02:34:59.551Z,84.74
2023-04-25T02:37:12.142Z,84.84
2023-04-25T02:39:26.122Z,85.10
2023-04-25T02:41:38.664Z,85.08
2023-04-25T02:43:51.553Z,85.49
2023-04-25T02:46:04.567Z,85.32
2023-04-25T02:48:17.203Z,85.43
2023-04-25T02:50:31.967Z,85.71
2023-04-25T02:52:44.517Z,85.50
2023-04-25T02:54:57.405Z,85.84
2023-04-25T02:57:10.032Z,86.05
2023-04-25T02:59:22.683Z,86.15
2023-04-25T03:01:35.375Z,86.20
2023-04-25T03:03:48.017Z,86.36
2023-04-25T03:06:00.764Z,86.50
2023-04-25T03:08:13.305Z,86.53
2023-04-25T03:10:25.952Z,86.57
2023-04-25T03:12:38.821Z,86.69
2023-04-25T03:14:51.394Z,86.94
2023-04-25T03:17:04.032Z,86.99
2023-04-25T03:19:19.689Z,87.34
2023-04-25T03:21:34.294Z,87.40
2023-04-25T03:23:46.954Z,87.65
2023-04-25T03:25:59.513Z,87.96
2023-04-25T03:28:12.074Z,88.09
2023-04-25T03:30:24.694Z,88.22
2023-04-25T03:32:37.419Z,88.49
2023-04-25T03:34:50.002Z,88.85
2023-04-25T03:37:02.649Z,88.91
2023-04-25T03:39:15.208Z,89.02
2023-04-25T03:41:28.769Z,89.11
2023-04-25T03:43:41.374Z,89.19
2023-04-25T03:45:53.968Z,89.27
2023-04-25T03:48:06.589Z,89.40
2023-04-25T03:50:19.172Z,89.25
2023-04-25T03:52:31.708Z,89.37
2023-04-25T03:54:44.246Z,89.59
2023-04-25T03:56:56.770Z,89.53
2023-04-25T03:59:09.454Z,89.68
2023-04-25T04:01:22.067Z,89.64
2023-04-25T04:03:36.992Z,89.90
2023-04-25T04:05:51.621Z,89.73
2023-04-25T04:08:04.305Z,89.75
2023-04-25T04:10:16.825Z,89.76
2023-04-25T04:12:29.397Z,89.90
2023-04-25T04:14:41.929Z,89.89
2023-04-25T04:16:54.513Z,89.91
2023-04-25T04:19:07.043Z,89.83
2023-04-25T04:21:19.580Z,89.99
2023-04-25T04:23:32.239Z,89.95
2023-04-25T04:25:44.935Z,90.07
2023-04-25T04:27:58.219Z,89.84
2023-04-25T04:30:11.018Z,89.80
2023-04-25T04:32:24.716Z,89.91
2023-04-25T04:34:37.374Z,89.87
2023-04-25T04:36:49.902Z,89.78
2023-04-25T04:39:03.259Z,89.69
2023-04-25T04:41:15.773Z,89.78
2023-04-25T04:43:29.522Z,89.70
2023-04-25T04:45:42.076Z,89.73
2023-04-25T04:47:56.208Z,89.62
2023-04-25T04:50:10.341Z,89.55
2023-04-25T04:52:22.964Z,89.44
2023-04-25T04:54:36.522Z,89.52
2023-04-25T04:56:49.182Z,89.36
2023-04-25T04:59:02.835Z,89.11
2023-04-25T05:01:16.986Z,89.26
2023-04-25T05:03:29.860Z,89.02
2023-04-25T05:05:42.753Z,88.67
2023-04-25T05:07:55.464Z,88.79
2023-04-25T05:10:08.782Z,88.60
2023-04-25T05:12:21.307Z,88.16
2023-04-25T05:14:34.478Z,88.10
2023-04-25T05:16:47.190Z,87.44
2023-04-25T05:18:59.763Z,87.26
2023-04-25T05:21:12.307Z,86.97
2023-04-25T05:23:24.867Z,86.49
2023-04-25T05:25:37.666Z,86.11
2023-04-25T05:27:52.092Z,86.37
2023-04-25T05:30:06.333Z,85.73
2023-04-25T05:32:19.277Z,85.17
2023-04-25T05:34:32.054Z,84.96
2023-04-25T05:36:44.610Z,84.66
2023-04-25T05:38:57.268Z,84.50
2023-04-25T05:41:09.868Z,84.00
2023-04-25T05:43:22.404Z,83.44
2023-04-25T05:45:35.056Z,83.75
2023-04-25T05:47:47.649Z,83.07
2023-04-25T05:50:00.336Z,82.84
2023-04-25T05:52:13.054Z,82.86
2023-04-25T05:54:25.749Z,82.28
2023-04-25T05:56:38.307Z,82.08
2023-04-25T05:58:50.858Z,81.56
2023-04-25T06:01:04.064Z,81.43
2023-04-25T06:03:20.229Z,81.88
2023-04-25T06:05:33.421Z,81.12
2023-04-25T06:07:46.082Z,80.87
2023-04-25T06:09:58.742Z,80.10
2023-04-25T06:12:11.289Z,79.30
2023-04-25T06:14:28.266Z,79.19
2023-04-25T06:16:42.075Z,78.99
2023-04-25T06:18:54.667Z,78.38
2023-04-25T06:21:07.567Z,77.73
2023-04-25T06:23:20.091Z,77.80
2023-04-25T06:25:32.626Z,77.09
2023-04-25T06:27:45.187Z,77.03
2023-04-25T06:29:57.816Z,76.87
2023-04-25T06:32:10.503Z,76.47
2023-04-25T06:34:23.035Z,76.10
2023-04-25T06:36:35.559Z,75.35
2023-04-25T06:38:48.200Z,74.31
2023-04-25T06:41:00.798Z,74.60
2023-04-25T06:43:13.378Z,74.84
2023-04-25T06:45:25.915Z,74.06
2023-04-25T06:47:38.633Z,73.61
2023-04-25T06:49:51.233Z,72.91
2023-04-25T06:52:03.894Z,72.14
2023-04-25T06:54:16.435Z,72.08
2023-04-25T06:56:30.599Z,70.97
2023-04-25T06:58:43.124Z,70.05
2023-04-25T07:00:55.921Z,69.75
2023-04-25T07:03:09.119Z,69.68
2023-04-25T07:05:22.559Z,69.50
2023-04-25T07:07:35.305Z,68.02
2023-04-25T07:09:47.813Z,67.12
2023-04-25T07:12:02.470Z,65.09
2023-04-25T07:14:15.023Z,64.23
2023-04-25T07:16:27.602Z,64.81
2023-04-25T07:18:40.211Z,64.00
2023-04-25T07:20:52.805Z,64.34
2023-04-25T07:23:05.520Z,64.07
2023-04-25T07:25:18.787Z,63.06
2023-04-25T07:27:32.079Z,62.52
2023-04-25T07:29:44.579Z,62.68
2023-04-25T07:31:57.115Z,62.41
2023-04-25T07:34:09.716Z,63.48
2023-04-25T07:36:22.532Z,63.86
2023-04-25T07:38:35.155Z,63.17
2023-04-25T07:40:49.145Z,62.75
2023-04-25T07:43:01.696Z,62.80
2023-04-25T07:45:14.607Z,63.31
2023-04-25T07:47:27.237Z,63.12
2023-04-25T07:49:39.928Z,62.95
2023-04-25T07:51:52.489Z,63.08
2023-04-25T07:54:06.307Z,63.04
2023-04-25T07:56:18.974Z,63.61
2023-04-25T07:58:31.585Z,63.99
2023-04-25T08:00:44.299Z,64.04
2023-04-25T08:02:57.197Z,64.15
2023-04-25T08:05:12.870Z,63.51
2023-04-25T08:07:26.182Z,63.23
2023-04-25T08:09:38.799Z,62.67
2023-04-25T08:11:51.416Z,63.91
2023-04-25T08:14:03.949Z,63.21
2023-04-25T08:16:16.821Z,62.37
2023-04-25T08:18:29.528Z,61.67
2023-04-25T08:20:42.099Z,61.30
2023-04-25T08:22:54.702Z,61.14
2023-04-25T08:25:07.522Z,61.31
2023-04-25T08:27:20.119Z,61.68
2023-04-25T08:29:32.638Z,61.39
2023-04-25T08:31:45.303Z,61.19
2023-04-25T08:33:57.966Z,60.39
2023-04-25T08:36:10.547Z,59.69
2023-04-25T08:38:23.068Z,59.81
2023-04-25T08:40:38.938Z,60.09
2023-04-25T08:42:51.665Z,60.76
2023-04-25T08:45:07.120Z,61.36
2023-04-25T08:47:23.637Z,61.25
2023-04-25T08:49:36.989Z,60.89
2023-04-25T08:51:52.151Z,60.63
2023-04-25T08:56:29.850Z,61.24
2023-04-25T08:58:45.438Z,60.99
2023-04-25T09:00:58.257Z,60.57
2023-04-25T09:03:11.787Z,59.68
2023-04-25T09:05:26.241Z,58.75
2023-04-25T09:07:39.284Z,58.67
2023-04-25T09:09:52.723Z,58.44
2023-04-25T09:12:06.494Z,58.51
2023-04-25T09:14:22.964Z,57.18
2023-04-25T09:16:38.192Z,56.13
2023-04-25T09:18:52.091Z,57.18
2023-04-25T09:21:14.419Z,58.06
2023-04-25T09:23:27.490Z,58.74
2023-04-25T09:25:40.279Z,59.19
2023-04-25T09:27:55.140Z,59.42
2023-04-25T09:30:08.374Z,60.01
2023-04-25T09:32:25.569Z,60.00
2023-04-25T09:34:42.865Z,60.27
2023-04-25T09:36:56.311Z,60.38
2023-04-25T09:39:17.315Z,60.45
2023-04-25T09:41:30.074Z,60.45
2023-04-25T09:43:46.365Z,60.46
2023-04-25T09:46:01.431Z,60.39
2023-04-25T09:48:24.150Z,59.34
2023-04-25T09:50:36.744Z,58.25
2023-04-25T09:53:04.225Z,58.60
2023-04-25T09:55:16.925Z,57.41
2023-04-25T09:57:29.543Z,55.92
2023-04-25T09:59:53.340Z,54.69
2023-04-25T10:02:08.399Z,55.12
2023-04-25T10:04:27.202Z,55.47
2023-04-25T10:06:42.322Z,53.75
2023-04-25T10:08:56.830Z,52.66
2023-04-25T10:11:09.735Z,53.39
2023-04-25T10:13:22.926Z,53.10
2023-04-25T10:15:39.608Z,52.89
2023-04-25T10:17:52.735Z,52.40
2023-04-25T10:20:11.721Z,52.36
2023-04-25T10:22:32.092Z,52.67
2023-04-25T10:24:45.325Z,53.40
2023-04-25T10:26:58.548Z,53.18
2023-04-25T10:29:11.171Z,52.56
2023-04-25T10:31:23.911Z,52.73
2023-04-25T10:33:38.682Z,52.79
2023-04-25T10:35:51.235Z,53.04
2023-04-25T10:38:10.891Z,52.77
2023-04-25T10:40:23.950Z,53.10
2023-04-25T10:42:36.707Z,52.55
2023-04-25T10:45:05.207Z,52.83
2023-04-25T10:47:36.285Z,52.29
2023-04-25T10:49:51.773Z,50.94
2023-04-25T10:52:27.276Z,50.35
2023-04-25T10:55:03.769Z,48.77
2023-04-25T10:57:28.655Z,46.93
2023-04-25T10:59:41.304Z,46.23
2023-04-25T11:01:56.174Z,45.89
2023-04-25T11:04:30.637Z,45.35
2023-04-25T11:07:07.414Z,45.79
2023-04-25T11:09:25.455Z,46.11
2023-04-25T11:11:38.539Z,46.08
2023-04-25T11:13:51.520Z,45.45
2023-04-25T11:16:12.539Z,44.99
2023-04-25T11:18:28.168Z,45.30
2023-04-25T11:20:44.219Z,45.13
2023-04-25T11:23:00.742Z,44.45
2023-04-25T11:25:15.744Z,44.22
2023-04-25T11:27:28.306Z,44.21
2023-04-25T11:29:41.769Z,44.84
2023-04-25T11:31:57.029Z,45.39
2023-04-25T11:34:09.584Z,45.43
2023-04-25T11:36:23.812Z,46.03
2023-04-25T11:38:36.493Z,45.69
2023-04-25T11:40:55.258Z,44.17
2023-04-25T11:43:08.111Z,44.21
2023-04-25T11:45:20.941Z,44.50
2023-04-25T11:47:34.489Z,43.85
2023-04-25T11:49:47.079Z,44.58
2023-04-25T11:51:59.665Z,44.85
2023-04-25T11:54:13.036Z,44.73
2023-04-25T11:56:25.662Z,44.79
2023-04-25T11:58:57.875Z,45.27
2023-04-25T12:01:10.497Z,44.59
2023-04-25T12:03:27.227Z,44.32
2023-04-25T12:05:41.187Z,44.93
2023-04-25T12:07:54.011Z,45.24
2023-04-25T12:10:08.932Z,44.90
2023-04-25T12:12:21.641Z,44.03
2023-04-25T12:14:35.980Z,45.11
2023-04-25T12:16:49.605Z,45.70
2023-04-25T12:19:02.138Z,45.83
2023-04-25T12:21:14.744Z,46.09
2023-04-25T12:23:29.115Z,44.97
2023-04-25T12:25:43.417Z,45.94
2023-04-25T12:27:56.041Z,45.83
2023-04-25T12:30:09.636Z,44.21
2023-04-25T12:32:23.026Z,44.06
2023-04-25T12:34:37.151Z,44.01
2023-04-25T12:36:52.268Z,44.05
2023-04-25T12:39:05.610Z,44.25
2023-04-25T12:41:18.660Z,43.53
2023-04-25T12:43:31.556Z,43.91
2023-04-25T12:45:44.678Z,44.56
2023-04-25T12:47:57.292Z,44.95
2023-04-25T12:50:10.498Z,45.48
2023-04-25T12:52:23.020Z,45.15
2023-04-25T12:54:36.231Z,45.12
2023-04-25T12:56:48.885Z,45.11
2023-04-25T12:59:01.743Z,45.17
2023-04-25T13:01:14.932Z,45.77
2023-04-25T13:03:27.606Z,45.68
2023-04-25T13:05:40.978Z,45.04
2023-04-25T13:07:53.543Z,45.24
2023-04-25T13:10:06.892Z,44.30
2023-04-25T13:12:19.428Z,42.00
2023-04-25T13:14:34.958Z,41.50
2023-04-25T13:16:47.596Z,41.12
2023-04-25T13:19:00.209Z,41.32
2023-04-25T13:21:12.846Z,41.47
2023-04-25T13:23:27.528Z,41.40
2023-04-25T13:25:40.073Z,41.77
2023-04-25T13:27:53.025Z,41.60
2023-04-25T13:30:08.600Z,41.70
2023-04-25T13:32:21.704Z,41.91
2023-04-25T13:34:34.717Z,42.64
2023-04-25T13:36:47.636Z,42.39
2023-04-25T13:39:00.769Z,43.29
2023-04-25T13:41:18.798Z,44.12
2023-04-25T13:43:33.214Z,43.97
2023-04-25T13:45:46.245Z,43.80
2023-04-25T13:47:59.205Z,43.61
2023-04-25T13:50:12.329Z,43.54
2023-04-25T13:52:25.449Z,43.97
2023-04-25T13:54:38.108Z,43.97
2023-04-25T13:56:51.404Z,44.08
2023-04-25T13:59:04.019Z,44.54
2023-04-25T14:01:16.680Z,44.52
2023-04-25T14:03:29.359Z,44.75
2023-04-25T14:05:42.544Z,44.79
2023-04-25T14:07:55.159Z,44.75
2023-04-25T14:10:08.243Z,44.49
2023-04-25T14:12:20.888Z,44.84
2023-04-25T14:14:33.414Z,45.04
2023-04-25T14:16:46.652Z,45.16
2023-04-25T14:18:59.651Z,45.08
2023-04-25T14:21:12.239Z,45.63
2023-04-25T14:23:24.750Z,45.75
2023-04-25T14:25:37.698Z,45.99
2023-04-25T14:27:53.313Z,45.88
2023-04-25T14:30:07.378Z,45.92
2023-04-25T14:32:21.131Z,46.08
2023-04-25T14:34:33.637Z,46.01
2023-04-25T14:36:46.289Z,46.20
2023-04-25T14:38:59.523Z,45.93
2023-04-25T14:41:12.290Z,46.30
2023-04-25T14:43:24.790Z,46.99
2023-04-25T14:45:37.398Z,47.76
2023-04-25T14:47:50.193Z,48.37
2023-04-25T14:50:03.370Z,48.71
2023-04-25T14:52:16.018Z,49.30
2023-04-25T14:54:28.530Z,49.68
2023-04-25T14:56:41.083Z,49.85
2023-04-25T14:58:53.684Z,50.65
2023-04-25T15:01:07.780Z,50.75
2023-04-25T15:03:20.686Z,50.96
2023-04-25T15:05:33.475Z,51.18
2023-04-25T15:07:46.249Z,51.23
2023-04-25T15:09:58.815Z,51.47
2023-04-25T15:12:11.891Z,51.99
2023-04-25T15:14:24.502Z,52.09
2023-04-25T15:16:37.182Z,52.19
2023-04-25T15:18:49.709Z,52.52
2023-04-25T15:21:02.259Z,53.13
2023-04-25T15:23:14.902Z,53.08
2023-04-25T15:25:29.399Z,53.69
2023-04-25T15:27:44.754Z,53.93
2023-04-25T15:29:57.410Z,54.06
2023-04-25T15:32:10.150Z,54.63
2023-04-25T15:34:22.743Z,54.72
2023-04-25T15:36:35.314Z,54.87
2023-04-25T15:38:47.860Z,55.80
2023-04-25T15:41:00.458Z,58.19
2023-04-25T15:43:16.396Z,60.53
2023-04-25T15:45:29.667Z,61.98
2023-04-25T15:47:42.965Z,62.58
2023-04-25T15:49:55.633Z,63.44
2023-04-25T15:52:08.198Z,64.34
2023-04-25T15:54:20.705Z,64.70
2023-04-25T15:56:33.390Z,65.11
2023-04-25T15:58:46.236Z,65.63
2023-04-25T16:00:59.068Z,65.93
2023-04-25T16:03:12.059Z,65.72
2023-04-25T16:05:24.709Z,65.10
2023-04-25T16:07:37.945Z,64.65
2023-04-25T16:09:50.658Z,63.81
2023-04-25T16:12:04.032Z,63.09
2023-04-25T16:14:16.653Z,62.80
2023-04-25T16:16:29.233Z,63.03
2023-04-25T16:18:42.075Z,63.30
2023-04-25T16:20:54.661Z,63.44
2023-04-25T16:23:07.175Z,62.99
2023-04-25T16:25:21.828Z,62.55
2023-04-25T16:27:34.826Z,62.40
2023-04-25T16:29:49.405Z,62.44
2023-04-25T16:32:02.573Z,62.53
2023-04-25T16:34:15.418Z,62.83
2023-04-25T16:36:28.111Z,62.78
2023-04-25T16:38:40.729Z,63.11
2023-04-25T16:40:54.445Z,63.60
2023-04-25T16:43:07.014Z,64.38
2023-04-25T16:45:21.061Z,64.77
2023-04-25T16:47:33.637Z,65.35
2023-04-25T16:49:46.274Z,66.08
2023-04-25T16:51:58.912Z,66.77
2023-04-25T16:54:11.481Z,67.19
2023-04-25T16:56:24.655Z,67.92
2023-04-25T16:58:37.330Z,68.51
2023-04-25T17:00:50.116Z,69.59
2023-04-25T17:03:03.243Z,70.58
2023-04-25T17:05:15.913Z,71.73
2023-04-25T17:07:28.528Z,71.95
2023-04-25T17:09:41.293Z,72.98
2023-04-25T17:11:54.231Z,73.38
2023-04-25T17:14:06.927Z,74.00
2023-04-25T17:16:22.959Z,74.87
2023-04-25T17:18:35.937Z,74.76
2023-04-25T17:20:48.654Z,75.43
2023-04-25T17:23:01.318Z,75.54
2023-04-25T17:25:13.907Z,75.94
2023-04-25T17:27:26.738Z,76.10
2023-04-25T17:29:39.312Z,76.14
2023-04-25T17:31:52.852Z,76.39
2023-04-25T17:34:05.475Z,76.76
2023-04-25T17:36:18.400Z,76.56
2023-04-25T17:38:31.604Z,77.13
2023-04-25T17:40:44.150Z,77.01
2023-04-25T17:42:56.728Z,76.88
2023-04-25T17:45:09.614Z,76.85
2023-04-25T17:47:23.330Z,76.78
2023-04-25T17:49:36.025Z,76.82
2023-04-25T17:51:48.808Z,76.88
2023-04-25T17:54:01.314Z,76.50
2023-04-25T17:56:25.925Z,75.86
2023-04-25T17:58:40.197Z,75.67
2023-04-25T18:00:52.816Z,75.44
2023-04-25T18:03:05.845Z,75.02
2023-04-25T18:05:19.036Z,74.58
2023-04-25T18:07:31.776Z,74.44
2023-04-25T18:09:45.062Z,74.32
2023-04-25T18:12:00.358Z,74.13
2023-04-25T18:14:14.578Z,74.47
2023-04-25T18:16:29.300Z,74.67
2023-04-25T18:18:44.045Z,74.95
2023-04-25T18:20:56.567Z,75.11
2023-04-25T18:23:09.140Z,75.48
2023-04-25T18:25:21.874Z,75.44
2023-04-25T18:27:34.435Z,75.43
2023-04-25T18:29:47.287Z,75.60
2023-04-25T18:32:00.039Z,76.14
2023-04-25T18:34:13.174Z,76.05
2023-04-25T18:36:26.667Z,75.86
2023-04-25T18:38:39.154Z,76.33
2023-04-25T18:41:00.066Z,76.12
2023-04-25T18:43:18.646Z,76.03
2023-04-25T18:45:32.025Z,76.27
2023-04-25T18:47:46.588Z,76.48
2023-04-25T18:49:59.191Z,76.47
2023-04-25T18:52:14.959Z,76.51
2023-04-25T18:54:27.583Z,76.26
2023-04-25T18:56:40.138Z,76.30
2023-04-25T18:58:54.200Z,76.35
2023-04-25T19:01:07.530Z,76.17
2023-04-25T19:03:21.826Z,76.13
2023-04-25T19:05:34.507Z,75.98
2023-04-25T19:07:47.142Z,75.87
2023-04-25T19:09:59.920Z,75.67
2023-04-25T19:12:12.580Z,75.41
2023-04-25T19:14:26.127Z,74.90
2023-04-25T19:16:41.742Z,74.59
2023-04-25T19:18:56.582Z,74.28
2023-04-25T19:21:09.583Z,73.99
2023-04-25T19:23:25.345Z,73.17
2023-04-25T19:25:38.098Z,72.80
2023-04-25T19:27:50.883Z,72.58
2023-04-25T19:30:08.039Z,72.29
2023-04-25T19:32:20.684Z,71.85
2023-04-25T19:34:33.263Z,71.27
2023-04-25T19:36:45.834Z,70.98
2023-04-25T19:39:02.362Z,70.46
2023-04-25T19:41:14.935Z,70.22
2023-04-25T19:43:27.597Z,69.75
2023-04-25T19:45:40.294Z,69.47
2023-04-25T19:47:53.419Z,69.28
2023-04-25T19:50:08.446Z,68.97
2023-04-25T19:52:21.161Z,68.79
2023-04-25T19:54:34.378Z,68.73
2023-04-25T19:56:46.911Z,68.59
2023-04-25T19:58:59.571Z,68.54
2023-04-25T20:01:12.160Z,68.28
2023-04-25T20:03:24.814Z,68.18
2023-04-25T20:05:37.696Z,68.07
2023-04-25T20:07:50.482Z,68.02
2023-04-25T20:10:07.036Z,67.89
2023-04-25T20:12:20.076Z,67.95
2023-04-25T20:14:33.263Z,67.94
2023-04-25T20:16:46.732Z,67.58
2023-04-25T20:18:59.371Z,67.40
2023-04-25T20:21:11.907Z,67.56
2023-04-25T20:23:24.423Z,67.38
2023-04-25T20:25:37.753Z,67.49
2023-04-25T20:27:50.287Z,67.39
2023-04-25T20:30:04.974Z,67.53
2023-04-25T20:32:17.654Z,67.68
2023-04-25T20:34:31.597Z,67.21
2023-04-25T20:36:44.180Z,67.45
2023-04-25T20:38:57.116Z,67.20
2023-04-25T20:41:09.609Z,67.30
2023-04-25T20:43:23.475Z,67.39
2023-04-25T20:45:37.490Z,67.29
2023-04-25T20:47:50.152Z,67.38
2023-04-25T20:50:05.933Z,67.38
2023-04-25T20:52:18.763Z,67.65
2023-04-25T20:54:32.092Z,67.63
2023-04-25T20:56:45.302Z,67.72
2023-04-25T20:58:58.314Z,67.98
2023-04-25T21:01:11.452Z,68.08
2023-04-25T21:03:25.985Z,68.00
2023-04-25T21:05:38.736Z,68.26
2023-04-25T21:07:54.690Z,68.01
2023-04-25T21:10:07.633Z,68.16
2023-04-25T21:12:20.555Z,67.98
2023-04-25T21:14:34.516Z,67.93
2023-04-25T21:16:47.428Z,67.85
2023-04-25T21:19:02.003Z,67.78
2023-04-25T21:21:14.825Z,67.95
2023-04-25T21:23:27.661Z,67.81
2023-04-25T21:25:41.301Z,68.00
2023-04-25T21:27:54.147Z,68.26
2023-04-25T21:30:08.374Z,68.27
2023-04-25T21:32:21.833Z,68.54
2023-04-25T21:34:34.459Z,68.48
2023-04-25T21:36:47.281Z,68.65
2023-04-25T21:39:00.039Z,68.77
2023-04-25T21:41:12.590Z,68.78
2023-04-25T21:43:25.164Z,68.89
2023-04-25T21:45:47.213Z,68.99
2023-04-25T21:48:10.637Z,69.20
2023-04-25T21:50:23.283Z,69.60
2023-04-25T21:52:36.166Z,69.61
2023-04-25T21:54:48.922Z,69.83
2023-04-25T21:57:01.444Z,69.90
2023-04-25T21:59:14.042Z,70.04
2023-04-25T22:01:27.674Z,70.38
2023-04-25T22:03:40.513Z,70.38
2023-04-25T22:05:53.142Z,70.62
2023-04-25T22:08:05.729Z,70.72
2023-04-25T22:10:19.584Z,70.96
2023-04-25T22:12:32.194Z,71.18
2023-04-25T22:14:44.866Z,71.37
2023-04-25T22:16:58.430Z,71.55
2023-04-25T22:19:11.484Z,71.59
2023-04-25T22:21:24.453Z,71.91
2023-04-25T22:23:37.320Z,72.04
2023-04-25T22:25:49.995Z,72.31
2023-04-25T22:28:02.571Z,72.40
2023-04-25T22:30:15.646Z,72.52
2023-04-25T22:32:28.212Z,72.54
2023-04-25T22:34:42.107Z,72.71
2023-04-25T22:36:55.137Z,72.95
2023-04-25T22:39:08.590Z,72.80
2023-04-25T22:41:21.564Z,73.07
2023-04-25T22:43:34.262Z,73.03
2023-04-25T22:45:47.395Z,73.36
2023-04-25T22:48:00.360Z,73.43
2023-04-25T22:50:13.878Z,73.62
2023-04-25T22:52:27.138Z,73.68
2023-04-25T22:54:39.692Z,74.02
2023-04-25T22:56:52.311Z,74.01
2023-04-25T22:59:04.827Z,74.29
2023-04-25T23:01:19.059Z,74.60
2023-04-25T23:03:32.655Z,74.66
2023-04-25T23:05:46.298Z,74.64
2023-04-25T23:07:59.207Z,74.78
2023-04-25T23:10:13.002Z,74.89
2023-04-25T23:12:25.565Z,75.23
2023-04-25T23:14:38.490Z,75.23
2023-04-25T23:16:51.167Z,75.42
2023-04-25T23:19:03.772Z,75.73
2023-04-25T23:21:16.280Z,76.01
2023-04-25T23:23:29.008Z,76.18
2023-04-25T23:25:41.566Z,76.26
2023-04-25T23:27:54.255Z,76.21
2023-04-25T23:30:08.606Z,76.47
2023-04-25T23:32:22.177Z,76.33
2023-04-25T23:34:35.733Z,76.35
2023-04-25T23:36:48.313Z,76.34
2023-04-25T23:39:02.059Z,76.38
2023-04-25T23:41:14.707Z,76.15
2023-04-25T23:43:27.295Z,76.28
2023-04-25T23:45:40.206Z,76.18
2023-04-25T23:47:52.790Z,76.27
2023-04-25T23:50:06.072Z,76.37
2023-04-25T23:52:18.686Z,76.27
2023-04-25T23:54:31.261Z,76.34
2023-04-25T23:56:44.450Z,76.13
2023-04-25T23:58:56.956Z,76.17
